createdAt,value
2019-02-05T00:01:42.577Z,54.24
2019-02-05T00:04:12.431Z,54.62
2019-02-05T00:06:42.034Z,54.87
2019-02-05T00:09:13.210Z,54.14
2019-02-05T00:11:43.105Z,54.04
2019-02-05T00:14:12.681Z,54.27
2019-02-05T00:16:42.622Z,55.10
2019-02-05T00:19:12.185Z,53.90
2019-02-05T00:21:41.772Z,53.89
2019-02-05T00:24:11.376Z,54.74
2019-02-05T00:26:40.885Z,53.86
2019-02-05T00:29:10.848Z,55.02
2019-02-05T00:31:40.425Z,54.28
2019-02-05T00:34:09.943Z,53.83
2019-02-05T00:36:39.509Z,53.48
2019-02-05T00:39:09.761Z,52.88
2019-02-05T00:41:39.368Z,54.43
2019-02-05T00:44:09.004Z,53.91
2019-02-05T00:46:38.534Z,54.73
2019-02-05T00:49:08.203Z,55.37
2019-02-05T00:51:37.821Z,54.97
2019-02-05T00:54:07.420Z,53.87
2019-02-05T00:56:36.938Z,55.26
2019-02-05T00:59:06.909Z,54.12
2019-02-05T01:01:36.506Z,53.51
2019-02-05T01:04:06.419Z,54.75
2019-02-05T01:06:35.954Z,54.27
2019-02-05T01:09:08.084Z,55.45
2019-02-05T01:11:37.683Z,54.42
2019-02-05T01:14:07.725Z,55.73
2019-02-05T01:16:37.311Z,54.17
2019-02-05T01:19:06.841Z,54.85
2019-02-05T01:21:36.503Z,54.32
2019-02-05T01:24:06.315Z,53.72
2019-02-05T01:26:36.002Z,52.88
2019-02-05T01:29:05.666Z,54.89
2019-02-05T01:31:35.186Z,54.64
2019-02-05T01:34:04.852Z,53.68
2019-02-05T01:36:34.454Z,53.37
2019-02-05T01:39:05.538Z,53.74
2019-02-05T01:41:35.352Z,55.49
2019-02-05T01:44:05.124Z,53.27
2019-02-05T01:46:34.738Z,55.25
2019-02-05T01:49:04.388Z,55.00
2019-02-05T01:51:33.981Z,54.86
2019-02-05T01:54:03.522Z,54.79
2019-02-05T01:56:40.332Z,53.59
2019-02-05T01:59:06.278Z,54.99
2019-02-05T02:01:36.071Z,53.98
2019-02-05T02:04:05.883Z,55.05
2019-02-05T02:06:35.329Z,54.16
2019-02-05T02:09:05.685Z,53.31
2019-02-05T02:11:35.124Z,51.74
2019-02-05T02:14:04.878Z,52.61
2019-02-05T02:16:34.317Z,54.08
2019-02-05T02:19:03.725Z,53.47
2019-02-05T02:21:33.156Z,55.37
2019-02-05T02:24:02.799Z,53.60
2019-02-05T02:26:32.224Z,54.24
2019-02-05T02:29:01.702Z,55.45
2019-02-05T02:31:31.156Z,54.84
2019-02-05T02:34:00.542Z,53.34
2019-02-05T02:36:29.949Z,54.27
2019-02-05T02:38:59.381Z,55.16
2019-02-05T02:41:28.742Z,54.46
2019-02-05T02:43:58.170Z,55.42
2019-02-05T02:46:27.545Z,55.12
2019-02-05T02:48:56.974Z,55.14
2019-02-05T02:51:26.405Z,55.10
2019-02-05T02:53:56.166Z,55.04
2019-02-05T02:56:25.552Z,54.90
2019-02-05T02:58:54.977Z,54.33
2019-02-05T03:01:24.416Z,54.90
2019-02-05T03:03:53.810Z,55.65
2019-02-05T03:06:23.225Z,54.94
2019-02-05T03:08:52.601Z,54.68
2019-02-05T03:11:22.026Z,55.34
2019-02-05T03:13:51.405Z,55.57
2019-02-05T03:16:20.853Z,55.42
2019-02-05T03:18:50.250Z,53.84
2019-02-05T03:21:19.678Z,55.30
2019-02-05T03:23:49.078Z,54.49
2019-02-05T03:26:18.398Z,55.91
2019-02-05T03:28:47.755Z,54.92
2019-02-05T03:31:17.420Z,55.55
2019-02-05T03:33:46.849Z,53.84
2019-02-05T03:36:16.290Z,55.76
2019-02-05T03:38:45.705Z,55.63
2019-02-05T03:41:15.129Z,54.86
2019-02-05T03:43:44.853Z,55.69
2019-02-05T03:46:15.529Z,54.15
2019-02-05T03:48:46.819Z,54.16
2019-02-05T03:51:58.993Z,54.41
2019-02-05T03:54:57.167Z,55.48
2019-02-05T03:58:29.103Z,52.85
2019-02-05T04:01:20.833Z,52.75
2019-02-05T04:04:20.864Z,55.43
2019-02-05T04:07:02.677Z,55.22
2019-02-05T04:10:40.937Z,52.69
2019-02-05T04:13:33.726Z,53.28
2019-02-05T04:16:46.901Z,54.94
2019-02-05T04:19:28.852Z,53.80
2019-02-05T04:22:15.959Z,54.21
2019-02-05T04:25:20.930Z,53.85
2019-02-05T04:28:09.269Z,53.17
2019-02-05T04:31:08.751Z,54.73
2019-02-05T04:33:59.670Z,53.91
2019-02-05T04:36:57.480Z,53.20
2019-02-05T04:39:41.196Z,53.37
2019-02-05T04:43:04.018Z,53.24
2019-02-05T04:46:19.093Z,50.02
2019-02-05T04:49:03.433Z,52.90
2019-02-05T04:51:59.470Z,53.79
2019-02-05T04:54:53.954Z,53.04
2019-02-05T04:57:58.041Z,51.71
2019-02-05T05:00:56.654Z,49.26
2019-02-05T05:04:09.515Z,49.89
2019-02-05T05:07:31.513Z,49.68
2019-02-05T05:10:00.960Z,48.63
2019-02-05T05:12:30.739Z,50.32
2019-02-05T05:15:00.750Z,50.45
2019-02-05T05:17:30.141Z,49.25
2019-02-05T05:19:59.933Z,49.44
2019-02-05T05:22:29.387Z,50.08
2019-02-05T05:24:59.679Z,49.63
2019-02-05T05:27:29.624Z,51.64
2019-02-05T05:29:59.022Z,49.01
2019-02-05T05:32:28.680Z,49.37
2019-02-05T05:34:58.127Z,49.15
2019-02-05T05:37:27.501Z,49.17
2019-02-05T05:39:56.848Z,48.91
2019-02-05T05:42:27.383Z,49.21
2019-02-05T05:44:56.727Z,49.15
2019-02-05T05:47:26.152Z,54.42
2019-02-05T05:49:55.524Z,51.07
2019-02-05T05:52:24.926Z,50.41
2019-02-05T05:54:54.373Z,49.01
2019-02-05T05:57:23.815Z,50.01
2019-02-05T05:59:53.287Z,48.71
2019-02-05T06:02:22.720Z,49.33
2019-02-05T06:04:52.093Z,50.71
2019-02-05T06:07:21.525Z,50.56
2019-02-05T06:09:50.878Z,52.48
2019-02-05T06:12:20.236Z,50.66
2019-02-05T06:14:49.979Z,48.24
2019-02-05T06:17:19.413Z,48.13
2019-02-05T06:19:48.764Z,48.79
2019-02-05T06:22:18.428Z,48.11
2019-02-05T06:24:47.834Z,49.67
2019-02-05T06:27:17.313Z,49.44
2019-02-05T06:29:47.079Z,52.84
2019-02-05T06:32:16.427Z,53.86
2019-02-05T06:34:45.863Z,55.10
2019-02-05T06:37:15.236Z,53.30
2019-02-05T06:39:44.602Z,52.00
2019-02-05T06:42:13.960Z,49.42
2019-02-05T06:44:43.304Z,49.91
2019-02-05T06:47:12.745Z,49.04
2019-02-05T06:49:42.116Z,49.04
2019-02-05T06:52:11.575Z,49.04
2019-02-05T06:54:40.922Z,49.05
2019-02-05T06:57:10.428Z,48.00
2019-02-05T06:59:39.799Z,48.29
2019-02-05T07:02:09.682Z,48.51
2019-02-05T07:04:39.218Z,48.99
2019-02-05T07:07:08.664Z,47.68
2019-02-05T07:09:38.064Z,48.13
2019-02-05T07:12:07.539Z,49.03
2019-02-05T07:14:36.917Z,48.34
2019-02-05T07:17:06.617Z,48.57
2019-02-05T07:19:36.005Z,49.60
2019-02-05T07:22:05.646Z,48.85
2019-02-05T07:24:34.997Z,52.23
2019-02-05T07:27:04.536Z,49.42
2019-02-05T07:29:33.913Z,49.74
2019-02-05T07:32:03.257Z,50.32
2019-02-05T07:34:32.674Z,49.39
2019-02-05T07:37:02.038Z,48.55
2019-02-05T07:39:31.387Z,48.77
2019-02-05T07:42:00.758Z,50.10
2019-02-05T07:44:30.093Z,49.83
2019-02-05T07:46:59.454Z,48.97
2019-02-05T07:49:28.817Z,49.29
2019-02-05T07:51:58.605Z,49.02
2019-02-05T07:54:27.951Z,49.69
2019-02-05T07:56:57.340Z,49.46
2019-02-05T07:59:26.786Z,49.44
2019-02-05T08:01:56.159Z,53.95
2019-02-05T08:04:25.584Z,50.73
2019-02-05T08:06:55.049Z,50.50
2019-02-05T08:09:24.719Z,50.37
2019-02-05T08:11:54.099Z,49.94
2019-02-05T08:14:23.784Z,50.00
2019-02-05T08:16:53.237Z,50.17
2019-02-05T08:19:22.588Z,49.14
2019-02-05T08:21:52.027Z,52.13
2019-02-05T08:24:21.480Z,55.39
2019-02-05T08:26:51.420Z,50.38
2019-02-05T08:29:21.913Z,50.02
2019-02-05T08:31:51.412Z,50.27
2019-02-05T08:34:22.429Z,50.03
2019-02-05T08:36:51.845Z,50.00
2019-02-05T08:39:21.214Z,56.27
2019-02-05T08:41:50.638Z,51.50
2019-02-05T08:44:20.061Z,55.05
2019-02-05T08:46:49.581Z,55.47
2019-02-05T08:49:18.963Z,51.43
2019-02-05T08:51:48.435Z,50.41
2019-02-05T08:54:17.941Z,50.16
2019-02-05T08:56:47.371Z,50.36
2019-02-05T08:59:17.183Z,50.30
2019-02-05T09:01:46.551Z,50.33
2019-02-05T09:04:15.978Z,50.67
2019-02-05T09:06:45.405Z,51.40
2019-02-05T09:09:14.849Z,50.72
2019-02-05T09:11:44.291Z,52.45
2019-02-05T09:14:13.666Z,51.06
2019-02-05T09:16:43.308Z,51.13
2019-02-05T09:19:12.904Z,50.77
2019-02-05T09:21:42.500Z,50.77
2019-02-05T09:24:11.955Z,50.51
2019-02-05T09:26:41.398Z,58.16
2019-02-05T09:29:10.823Z,51.88
2019-02-05T09:31:40.647Z,51.07
2019-02-05T09:34:10.044Z,50.87
2019-02-05T09:36:39.418Z,50.64
2019-02-05T09:39:08.946Z,50.85
2019-02-05T09:41:38.373Z,50.67
2019-02-05T09:44:07.731Z,50.67
2019-02-05T09:46:37.201Z,51.12
2019-02-05T09:49:06.850Z,54.15
2019-02-05T09:51:36.358Z,52.47
2019-02-05T09:54:05.821Z,53.35
2019-02-05T09:56:35.168Z,50.75
2019-02-05T09:59:04.883Z,50.72
2019-02-05T10:01:34.406Z,51.05
2019-02-05T10:04:04.199Z,51.29
2019-02-05T10:06:33.635Z,52.85
2019-02-05T10:09:03.291Z,51.96
2019-02-05T10:11:32.645Z,55.23
2019-02-05T10:14:02.026Z,55.26
2019-02-05T10:16:31.430Z,51.21
2019-02-05T10:19:00.993Z,54.41
2019-02-05T10:21:30.676Z,56.53
2019-02-05T10:24:00.194Z,53.65
2019-02-05T10:26:29.669Z,50.66
2019-02-05T10:28:59.042Z,50.72
2019-02-05T10:31:28.484Z,51.82
2019-02-05T10:33:57.933Z,51.22
2019-02-05T10:36:27.661Z,50.91
2019-02-05T10:38:57.076Z,50.67
2019-02-05T10:41:26.517Z,53.55
2019-02-05T10:43:55.866Z,51.42
2019-02-05T10:46:25.292Z,51.00
2019-02-05T10:48:54.659Z,50.42
2019-02-05T10:51:24.157Z,50.86
2019-02-05T10:53:53.913Z,51.41
2019-02-05T10:56:23.374Z,53.16
2019-02-05T10:58:53.177Z,50.47
2019-02-05T11:01:22.563Z,53.81
2019-02-05T11:03:52.075Z,51.87
2019-02-05T11:06:21.444Z,51.02
2019-02-05T11:08:50.803Z,50.40
2019-02-05T11:11:20.177Z,50.74
2019-02-05T11:13:49.573Z,50.91
2019-02-05T11:16:18.933Z,50.26
2019-02-05T11:18:48.357Z,50.17
2019-02-05T11:21:17.709Z,51.13
2019-02-05T11:23:47.156Z,50.38
2019-02-05T11:26:17.328Z,51.58
2019-02-05T11:28:47.063Z,50.18
2019-02-05T11:31:16.816Z,51.31
2019-02-05T11:33:46.628Z,50.60
2019-02-05T11:36:16.476Z,50.08
2019-02-05T11:38:46.210Z,51.07
2019-02-05T11:41:15.713Z,50.73
2019-02-05T11:43:45.166Z,50.08
2019-02-05T11:46:14.700Z,53.09
2019-02-05T11:48:44.128Z,54.13
2019-02-05T11:51:13.755Z,52.50
2019-02-05T11:53:43.249Z,53.46
2019-02-05T11:56:12.756Z,52.46
2019-02-05T11:58:42.291Z,51.51
2019-02-05T12:01:16.170Z,51.43
2019-02-05T12:03:45.665Z,52.10
2019-02-05T12:06:15.102Z,51.30
2019-02-05T12:08:44.686Z,51.30
2019-02-05T12:11:14.122Z,50.05
2019-02-05T12:13:43.761Z,49.61
2019-02-05T12:16:13.298Z,50.19
2019-02-05T12:18:42.728Z,49.73
2019-02-05T12:21:12.310Z,50.05
2019-02-05T12:23:41.751Z,50.13
2019-02-05T12:26:11.252Z,50.39
2019-02-05T12:28:40.698Z,50.33
2019-02-05T12:31:10.301Z,50.36
2019-02-05T12:33:39.653Z,50.67
2019-02-05T12:36:09.109Z,50.00
2019-02-05T12:38:38.550Z,50.21
2019-02-05T12:41:07.914Z,50.32
2019-02-05T12:43:37.295Z,49.81
2019-02-05T12:46:07.029Z,50.14
2019-02-05T12:48:36.426Z,51.93
2019-02-05T12:51:06.342Z,49.93
2019-02-05T12:53:35.709Z,49.74
2019-02-05T12:56:05.431Z,48.91
2019-02-05T12:58:34.859Z,50.14
2019-02-05T13:01:04.285Z,50.18
2019-02-05T13:03:33.667Z,50.59
2019-02-05T13:06:03.087Z,51.56
2019-02-05T13:08:32.530Z,50.28
2019-02-05T13:11:01.893Z,50.84
2019-02-05T13:13:31.446Z,50.75
2019-02-05T13:16:00.958Z,50.34
2019-02-05T13:18:30.421Z,50.44
2019-02-05T13:20:59.897Z,49.58
2019-02-05T13:23:29.237Z,49.39
2019-02-05T13:25:58.764Z,52.98
2019-02-05T13:28:28.146Z,51.56
2019-02-05T13:31:07.650Z,50.24
2019-02-05T13:33:30.640Z,49.57
2019-02-05T13:36:00.004Z,50.27
2019-02-05T13:38:29.441Z,50.06
2019-02-05T13:40:58.903Z,50.58
2019-02-05T13:43:28.401Z,50.32
2019-02-05T13:45:57.919Z,50.82
2019-02-05T13:48:27.271Z,50.04
2019-02-05T13:50:56.695Z,49.90
2019-02-05T13:53:26.059Z,50.03
2019-02-05T13:55:55.563Z,50.03
2019-02-05T13:58:24.910Z,50.03
2019-02-05T14:00:55.384Z,49.74
2019-02-05T14:03:24.806Z,49.75
2019-02-05T14:05:54.189Z,51.58
2019-02-05T14:08:23.624Z,49.22
2019-02-05T14:10:53.390Z,50.75
2019-02-05T14:13:22.748Z,50.72
2019-02-05T14:15:53.229Z,48.77
2019-02-05T14:18:23.241Z,49.93
2019-02-05T14:20:52.759Z,49.78
2019-02-05T14:23:22.201Z,49.71
2019-02-05T14:25:51.549Z,49.76
2019-02-05T14:28:20.905Z,48.49
2019-02-05T14:30:57.538Z,52.41
2019-02-05T14:33:28.813Z,50.10
2019-02-05T14:35:58.249Z,49.10
2019-02-05T14:38:27.742Z,50.37
2019-02-05T14:40:57.181Z,49.46
2019-02-05T14:43:26.824Z,49.41
2019-02-05T14:45:56.283Z,50.72
2019-02-05T14:48:25.829Z,49.53
2019-02-05T14:50:55.259Z,49.23
2019-02-05T14:53:24.616Z,51.30
2019-02-05T14:55:54.062Z,50.76
2019-02-05T14:58:23.695Z,51.07
2019-02-05T15:00:53.119Z,49.24
2019-02-05T15:03:22.482Z,49.40
2019-02-05T15:05:51.853Z,54.82
2019-02-05T15:08:21.627Z,50.39
2019-02-05T15:10:51.019Z,49.97
2019-02-05T15:13:20.533Z,51.14
2019-02-05T15:15:50.006Z,48.42
2019-02-05T15:18:23.081Z,50.19
2019-02-05T15:20:52.512Z,49.47
2019-02-05T15:23:22.298Z,48.32
2019-02-05T15:25:52.033Z,51.87
2019-02-05T15:28:21.477Z,49.14
2019-02-05T15:30:51.633Z,50.31
2019-02-05T15:33:38.825Z,49.84
2019-02-05T15:36:15.168Z,49.12
2019-02-05T15:38:44.601Z,50.24
2019-02-05T15:41:13.991Z,48.35
2019-02-05T15:43:43.481Z,48.74
2019-02-05T15:46:12.897Z,49.15
2019-02-05T15:48:42.242Z,49.09
2019-02-05T15:51:12.002Z,48.93
2019-02-05T15:53:41.428Z,52.91
2019-02-05T15:56:10.796Z,50.44
2019-02-05T15:58:40.230Z,48.66
2019-02-05T16:01:09.700Z,48.51
2019-02-05T16:03:39.057Z,48.33
2019-02-05T16:06:08.491Z,48.56
2019-02-05T16:08:37.898Z,52.46
2019-02-05T16:11:07.327Z,48.71
2019-02-05T16:13:36.688Z,48.47
2019-02-05T16:16:06.461Z,49.58
2019-02-05T16:18:35.814Z,48.45
2019-02-05T16:21:05.266Z,49.14
2019-02-05T16:23:34.621Z,49.18
2019-02-05T16:26:04.213Z,50.27
2019-02-05T16:28:33.582Z,51.98
2019-02-05T16:31:03.023Z,53.53
2019-02-05T16:33:32.449Z,48.99
2019-02-05T16:36:01.869Z,56.72
2019-02-05T16:38:31.313Z,49.36
2019-02-05T16:41:00.686Z,56.06
2019-02-05T16:43:30.137Z,55.02
2019-02-05T16:45:59.489Z,53.88
2019-02-05T16:48:28.917Z,48.99
2019-02-05T16:50:58.435Z,52.03
2019-02-05T16:53:27.863Z,50.88
2019-02-05T16:55:57.211Z,49.38
2019-02-05T16:58:26.605Z,48.37
2019-02-05T17:00:56.192Z,48.50
2019-02-05T17:03:25.603Z,48.95
2019-02-05T17:05:55.222Z,49.29
2019-02-05T17:08:24.602Z,48.69
2019-02-05T17:10:53.956Z,48.66
2019-02-05T17:13:23.505Z,48.86
2019-02-05T17:15:52.924Z,50.59
2019-02-05T17:18:24.042Z,48.57
2019-02-05T17:20:53.733Z,49.68
2019-02-05T17:23:23.291Z,48.71
2019-02-05T17:25:52.607Z,48.57
2019-02-05T17:28:21.976Z,48.89
2019-02-05T17:30:51.336Z,50.03
2019-02-05T17:33:20.813Z,50.09
2019-02-05T17:35:50.221Z,56.90
2019-02-05T17:38:19.717Z,52.04
2019-02-05T17:40:49.091Z,53.37
2019-02-05T17:43:18.506Z,54.10
2019-02-05T17:45:48.085Z,53.78
2019-02-05T17:48:18.331Z,53.16
2019-02-05T17:50:47.736Z,51.07
2019-02-05T17:53:17.125Z,51.27
2019-02-05T17:55:46.559Z,50.14
2019-02-05T17:58:16.291Z,49.18
2019-02-05T18:00:50.748Z,50.75
2019-02-05T18:03:20.556Z,49.74
2019-02-05T18:05:50.265Z,49.83
2019-02-05T18:08:19.612Z,50.51
2019-02-05T18:10:49.100Z,51.32
2019-02-05T18:13:18.515Z,50.68
2019-02-05T18:15:47.965Z,51.81
2019-02-05T18:18:17.772Z,50.82
2019-02-05T18:20:47.591Z,50.30
2019-02-05T18:23:17.024Z,50.98
2019-02-05T18:25:46.524Z,51.25
2019-02-05T18:28:15.871Z,49.76
2019-02-05T18:30:45.308Z,49.78
2019-02-05T18:33:15.007Z,50.25
2019-02-05T18:35:44.434Z,53.74
2019-02-05T18:38:15.082Z,52.79
2019-02-05T18:40:44.474Z,50.55
2019-02-05T18:43:13.892Z,50.54
2019-02-05T18:45:43.318Z,50.49
2019-02-05T18:48:12.909Z,50.42
2019-02-05T18:50:42.402Z,49.69
2019-02-05T18:53:12.083Z,50.98
2019-02-05T18:55:41.685Z,50.20
2019-02-05T18:58:11.135Z,49.32
2019-02-05T19:00:41.978Z,50.01
2019-02-05T19:03:15.669Z,50.83
2019-02-05T19:05:42.788Z,50.24
2019-02-05T19:08:12.338Z,52.14
2019-02-05T19:10:41.788Z,51.38
2019-02-05T19:13:11.204Z,50.26
2019-02-05T19:15:40.668Z,51.60
2019-02-05T19:18:10.233Z,50.17
2019-02-05T19:20:39.646Z,48.70
2019-02-05T19:23:09.749Z,49.22
2019-02-05T19:26:04.491Z,48.78
2019-02-05T19:28:36.211Z,51.55
2019-02-05T19:31:25.030Z,53.69
2019-02-05T19:33:54.444Z,51.13
2019-02-05T19:36:23.806Z,53.22
2019-02-05T19:38:53.235Z,51.49
2019-02-05T19:41:22.884Z,49.87
2019-02-05T19:43:52.293Z,53.79
2019-02-05T19:46:39.572Z,50.55
2019-02-05T19:49:34.059Z,49.46
2019-02-05T19:52:03.481Z,50.06
2019-02-05T19:54:32.820Z,49.23
2019-02-05T19:57:02.253Z,48.68
2019-02-05T19:59:31.605Z,54.06
2019-02-05T20:02:01.294Z,47.95
2019-02-05T20:04:30.686Z,51.35
2019-02-05T20:07:00.119Z,50.12
2019-02-05T20:09:29.554Z,49.31
2019-02-05T20:11:58.918Z,52.73
2019-02-05T20:14:28.259Z,49.17
2019-02-05T20:16:57.712Z,51.22
2019-02-05T20:19:27.176Z,48.21
2019-02-05T20:21:56.558Z,49.60
2019-02-05T20:24:25.984Z,57.05
2019-02-05T20:26:55.334Z,49.20
2019-02-05T20:29:24.723Z,48.42
2019-02-05T20:31:54.069Z,52.62
2019-02-05T20:34:23.724Z,50.15
2019-02-05T20:36:53.171Z,49.40
2019-02-05T20:39:22.557Z,48.36
2019-02-05T20:41:52.714Z,48.60
2019-02-05T20:44:22.193Z,48.61
2019-02-05T20:46:51.566Z,49.15
2019-02-05T20:49:20.982Z,49.65
2019-02-05T20:51:50.594Z,49.72
2019-02-05T20:54:20.011Z,48.70
2019-02-05T20:56:49.355Z,49.46
2019-02-05T20:59:18.830Z,52.87
2019-02-05T21:01:48.172Z,50.98
2019-02-05T21:04:17.614Z,49.56
2019-02-05T21:06:47.423Z,49.81
2019-02-05T21:09:21.118Z,51.15
2019-02-05T21:11:50.551Z,49.03
2019-02-05T21:14:19.990Z,53.59
2019-02-05T21:16:49.407Z,57.16
2019-02-05T21:19:18.868Z,51.65
2019-02-05T21:21:48.709Z,50.01
2019-02-05T21:24:18.150Z,49.76
2019-02-05T21:26:47.593Z,50.42
2019-02-05T21:29:17.023Z,49.47
2019-02-05T21:31:46.506Z,48.94
2019-02-05T21:34:16.355Z,49.01
2019-02-05T21:36:45.776Z,51.64
2019-02-05T21:39:15.341Z,49.31
2019-02-05T21:41:44.792Z,49.17
2019-02-05T21:44:14.226Z,50.53
2019-02-05T21:46:43.700Z,48.63
2019-02-05T21:49:13.327Z,49.70
2019-02-05T21:51:42.890Z,49.41
2019-02-05T21:54:13.170Z,49.97
2019-02-05T21:56:42.555Z,49.46
2019-02-05T21:59:11.937Z,49.21
2019-02-05T22:01:41.343Z,49.02
2019-02-05T22:04:10.759Z,48.82
2019-02-05T22:06:40.153Z,48.74
2019-02-05T22:09:12.041Z,49.68
2019-02-05T22:11:41.496Z,53.29
2019-02-05T22:14:10.962Z,52.35
2019-02-05T22:16:40.380Z,51.77
2019-02-05T22:19:10.176Z,51.56
2019-02-05T22:21:39.603Z,55.72
2019-02-05T22:24:09.034Z,50.62
2019-02-05T22:26:38.525Z,49.06
2019-02-05T22:29:08.272Z,49.16
2019-02-05T22:31:38.036Z,49.64
2019-02-05T22:34:07.795Z,50.08
2019-02-05T22:36:37.201Z,50.76
2019-02-05T22:39:08.706Z,52.85
2019-02-05T22:41:38.088Z,57.72
2019-02-05T22:44:07.505Z,57.29
2019-02-05T22:46:36.857Z,54.28
2019-02-05T22:49:06.392Z,52.36
2019-02-05T22:51:35.810Z,52.24
2019-02-05T22:54:05.339Z,51.62
2019-02-05T22:56:34.764Z,51.27
2019-02-05T22:59:04.878Z,51.03
2019-02-05T23:01:50.038Z,50.95
2019-02-05T23:04:50.370Z,51.25
2019-02-05T23:07:15.514Z,50.70
2019-02-05T23:10:26.999Z,49.21
2019-02-05T23:12:59.774Z,51.78
2019-02-05T23:15:29.412Z,49.29
2019-02-05T23:17:58.902Z,49.06
2019-02-05T23:20:28.615Z,51.67
2019-02-05T23:22:58.132Z,50.71
2019-02-05T23:25:27.456Z,50.44
2019-02-05T23:27:56.906Z,54.52
2019-02-05T23:30:27.847Z,51.71
2019-02-05T23:32:57.434Z,50.05
2019-02-05T23:35:27.234Z,49.18
2019-02-05T23:37:56.591Z,48.90
2019-02-05T23:40:25.962Z,52.08
2019-02-05T23:42:55.467Z,48.39
2019-02-05T23:45:24.888Z,49.37
2019-02-05T23:47:54.245Z,49.08
2019-02-05T23:50:23.871Z,49.11
2019-02-05T23:52:53.308Z,49.70
2019-02-05T23:55:22.643Z,51.57
2019-02-05T23:57:52.012Z,50.84
